KPGV/PGV METAR and TAF weather

Enter ICAO airport designator
Station Type Date Time Source
KPGV METAR 2021/04/14 19:35 UTC NOAA

KPGV 141935Z AUTO 21006G14KT 10SM CLR 26/12 A2998 RMK AO2


Station Type Date Time Source
KPGV Decoded METAR 2021/04/14 19:35 UTC NOAA

Pitt-Greenville Airport, NC, United States (KPGV) 35-38N 077-24W
Apr 14, 2021 - 03:35 PM EDT / 2021.04.14 1935 UTC
Wind: from the SSW (210 degrees) at 7 MPH (6 KT) gusting to 16 MPH (14 KT):0
Visibility: 10 mile(s):0
Sky conditions: clear
Temperature: 78 F (26 C)
Dew Point: 53 F (12 C)
Relative Humidity: 41%
Pressure (altimeter): 29.98 in. Hg (1015 hPa)
ob: KPGV 141935Z AUTO 21006G14KT 10SM CLR 26/12 A2998 RMK AO2
cycle: 19

Station Type Date Time Source
KPGV TAF 2021/04/14 18:22 UTC NOAA

TAF KPGV 141720Z 1418/1518 19009G14KT P6SM FEW250
FM150100 18012KT P6SM VCSH BKN070
FM150500 23009KT P6SM BKN070
FM151000 25004KT P6SM BKN030
AMD LTD TO CLD VIS AND WIND

Example: see airport list